Time;durP1;ratioP1;P1;durP2;ratioP2;P2;SDS_P1;SDS_P2;PMS_P1;PMS_P2;Temp;Humidity;BMP_temperature;BMP_pressure;BME280_temperature;BME280_humidity;BME280_pressure;Samples;Min_cycle;Max_cycle;Signal;HPM_P1;HPM_P2
2024/01/18 00:01:08;;;;;;;6.90;5.00;;;;;;;;;;44130;281;3031103;-32
2024/01/18 00:03:06;;;;;;;7.10;5.20;;;;;;;;;;44155;285;3032355;-32
2024/01/18 00:05:13;;;;;;;7.30;4.70;;;;;;;;;;44132;280;3032966;-32
2024/01/18 00:07:03;;;;;;;7.80;5.10;;;;;;;;;;44154;276;3031370;-31
2024/01/18 00:09:01;;;;;;;7.00;5.10;;;;;;;;;;44098;274;3031617;-32
2024/01/18 00:12:20;;;;;;;6.50;4.60;;;;;;;;;;44238;296;3012696;-32
2024/01/18 00:14:09;;;;;;;7.30;4.90;;;;;;;;;;43391;270;3031428;-32
2024/01/18 00:15:58;;;;;;;6.90;4.40;;;;;;;;;;43420;274;3032210;-32
2024/01/18 00:17:45;;;;;;;7.30;4.70;;;;;;;;;;43406;274;3031582;-32
2024/01/18 00:19:31;;;;;;;7.90;5.10;;;;;;;;;;43411;277;3031517;-32
2024/01/18 00:21:22;;;;;;;6.70;4.70;;;;;;;;;;43410;270;3031557;-32
2024/01/18 00:23:25;;;;;;;8.00;4.90;;;;;;;;;;44099;281;3031141;-32
2024/01/18 00:26:42;;;;;;;7.40;4.70;;;;;;;;;;44187;308;3011956;-32
2024/01/18 00:28:39;;;;;;;7.70;5.10;;;;;;;;;;43133;297;3031419;-32
2024/01/18 00:30:49;;;;;;;7.20;4.90;;;;;;;;;;43875;284;3031017;-32
2024/01/18 00:32:46;;;;;;;6.80;4.70;;;;;;;;;;43872;274;3030858;-32
2024/01/18 00:34:32;;;;;;;7.30;4.80;;;;;;;;;;43380;281;3031945;-32
2024/01/18 00:36:24;;;;;;;7.10;4.80;;;;;;;;;;44096;290;3031326;-32
2024/01/18 00:38:12;;;;;;;6.70;4.50;;;;;;;;;;44057;279;3037154;-32
2024/01/18 00:40:48;;;;;;;7.70;4.70;;;;;;;;;;44251;310;3010937;-32
2024/01/18 00:42:40;;;;;;;7.10;4.30;;;;;;;;;;43714;288;3031292;-32
2024/01/18 00:44:38;;;;;;;7.40;4.70;;;;;;;;;;43679;292;3032010;-32
2024/01/18 00:46:28;;;;;;;8.20;4.70;;;;;;;;;;43052;292;3031356;-32
2024/01/18 00:48:15;;;;;;;7.00;4.70;;;;;;;;;;42984;291;3031766;-32
2024/01/18 00:50:17;;;;;;;6.90;4.60;;;;;;;;;;43267;269;3031267;-32
2024/01/18 00:52:13;;;;;;;7.40;4.80;;;;;;;;;;43953;281;3038465;-32
2024/01/18 00:54:16;;;;;;;6.60;4.70;;;;;;;;;;43296;285;3031538;-32
2024/01/18 00:56:21;;;;;;;7.60;4.60;;;;;;;;;;43798;284;3034052;-32
2024/01/18 00:58:17;;;;;;;7.10;4.20;;;;;;;;;;44033;272;3031334;-32
2024/01/18 01:00:15;;;;;;;7.10;4.80;;;;;;;;;;43978;279;3031828;-32
2024/01/18 01:02:00;;;;;;;7.40;4.90;;;;;;;;;;43280;283;3031216;-32
2024/01/18 01:03:47;;;;;;;6.70;4.60;;;;;;;;;;43277;283;3031933;-32
2024/01/18 01:05:34;;;;;;;7.80;4.80;;;;;;;;;;44062;279;3032151;-32
2024/01/18 01:07:18;;;;;;;6.80;4.60;;;;;;;;;;44041;283;3031357;-32
2024/01/18 01:09:03;;;;;;;7.60;4.80;;;;;;;;;;44025;283;3031920;-32
2024/01/18 01:10:52;;;;;;;7.60;4.60;;;;;;;;;;43996;283;3031176;-32
2024/01/18 01:12:46;;;;;;;6.80;4.50;;;;;;;;;;43905;283;3037063;-32
2024/01/18 01:14:33;;;;;;;7.20;4.80;;;;;;;;;;43302;279;3032138;-32
2024/01/18 01:16:20;;;;;;;7.90;4.80;;;;;;;;;;43280;275;3031286;-32
2024/01/18 01:18:29;;;;;;;6.50;4.50;;;;;;;;;;43389;275;3032144;-32
2024/01/18 01:20:23;;;;;;;6.80;4.50;;;;;;;;;;43607;271;3031146;-32
2024/01/18 01:22:14;;;;;;;6.30;4.40;;;;;;;;;;43288;271;3031746;-32
2024/01/18 01:23:59;;;;;;;7.20;4.70;;;;;;;;;;43324;283;3031096;-32
2024/01/18 01:25:44;;;;;;;8.00;4.70;;;;;;;;;;43301;283;3031276;-32
2024/01/18 01:27:30;;;;;;;6.70;4.50;;;;;;;;;;43318;275;3031144;-32
2024/01/18 01:29:18;;;;;;;7.30;4.60;;;;;;;;;;43307;271;3031169;-32
2024/01/18 01:31:13;;;;;;;6.50;4.60;;;;;;;;;;43280;283;3031264;-32
2024/01/18 01:33:00;;;;;;;6.70;4.60;;;;;;;;;;43296;283;3032071;-32
2024/01/18 01:34:57;;;;;;;7.00;4.60;;;;;;;;;;43292;271;3031770;-32
2024/01/18 01:36:52;;;;;;;7.00;4.60;;;;;;;;;;44041;283;3031239;-32
2024/01/18 01:38:42;;;;;;;7.30;4.80;;;;;;;;;;44046;283;3031208;-32
2024/01/18 01:40:37;;;;;;;7.50;4.50;;;;;;;;;;43998;283;3031094;-32
2024/01/18 01:42:29;;;;;;;6.80;4.40;;;;;;;;;;43971;283;3031253;-32
2024/01/18 01:44:26;;;;;;;6.20;4.40;;;;;;;;;;44102;271;3032332;-32
2024/01/18 01:46:31;;;;;;;6.70;4.50;;;;;;;;;;44269;306;3014739;-32
2024/01/18 01:48:31;;;;;;;7.40;4.40;;;;;;;;;;43829;288;3031701;-32
2024/01/18 01:50:32;;;;;;;6.80;4.30;;;;;;;;;;43743;284;3031338;-32
2024/01/18 01:52:31;;;;;;;7.10;4.00;;;;;;;;;;43846;286;3031054;-32
2024/01/18 01:54:29;;;;;;;7.20;4.40;;;;;;;;;;43932;286;3031365;-32
2024/01/18 01:56:20;;;;;;;7.00;4.50;;;;;;;;;;43348;286;3031949;-32
2024/01/18 01:58:18;;;;;;;6.80;4.50;;;;;;;;;;43154;287;3031313;-32
2024/01/18 02:00:21;;;;;;;6.10;4.20;;;;;;;;;;43392;283;3032065;-32
2024/01/18 02:02:18;;;;;;;7.40;4.30;;;;;;;;;;43936;285;3031809;-32
2024/01/18 02:04:16;;;;;;;6.20;4.20;;;;;;;;;;43969;284;3031576;-32
2024/01/18 02:06:11;;;;;;;5.50;4.20;;;;;;;;;;43651;273;3030830;-32
2024/01/18 02:08:08;;;;;;;6.80;4.20;;;;;;;;;;43942;285;3037694;-32
2024/01/18 02:09:59;;;;;;;6.60;4.40;;;;;;;;;;43385;281;3031106;-32
2024/01/18 02:11:46;;;;;;;7.20;4.50;;;;;;;;;;43440;272;3031577;-32
2024/01/18 02:13:38;;;;;;;6.80;4.20;;;;;;;;;;43476;279;3030910;-32
2024/01/18 02:15:28;;;;;;;6.80;4.40;;;;;;;;;;43803;279;3030687;-32
2024/01/18 02:17:18;;;;;;;6.10;4.20;;;;;;;;;;43438;279;3030453;-32
2024/01/18 02:19:17;;;;;;;6.40;4.20;;;;;;;;;;43446;264;3030736;-33
2024/01/18 02:21:09;;;;;;;6.20;4.20;;;;;;;;;;44230;275;3031161;-33
2024/01/18 02:23:01;;;;;;;6.60;4.30;;;;;;;;;;43473;268;3031262;-33
2024/01/18 02:25:03;;;;;;;6.50;4.40;;;;;;;;;;44137;288;3031356;-33
2024/01/18 02:26:48;;;;;;;6.60;4.20;;;;;;;;;;43865;268;3031033;-33
2024/01/18 02:28:35;;;;;;;6.00;4.30;;;;;;;;;;43443;271;3030872;-33
2024/01/18 02:30:23;;;;;;;6.50;4.20;;;;;;;;;;43463;279;3031026;-33
2024/01/18 02:32:11;;;;;;;6.00;4.00;;;;;;;;;;44191;272;3030839;-33
2024/01/18 02:34:08;;;;;;;7.10;4.70;;;;;;;;;;44080;268;3031716;-32
2024/01/18 02:36:10;;;;;;;6.70;4.20;;;;;;;;;;43872;272;3030296;-32
2024/01/18 02:38:08;;;;;;;6.40;4.10;;;;;;;;;;44311;272;3030693;-32
2024/01/18 02:39:59;;;;;;;5.90;4.20;;;;;;;;;;43940;265;3030427;-32
2024/01/18 02:41:51;;;;;;;;;;;;;;;;;;44093;268;3031015;-31
2024/01/18 02:43:45;;;;;;;6.60;4.30;;;;;;;;;;43624;272;3030269;-31
2024/01/18 02:45:35;;;;;;;;;;;;;;;;;;43981;272;3031822;-31
2024/01/18 02:47:41;;;;;;;6.30;3.90;;;;;;;;;;43614;272;3030382;-31
2024/01/18 02:49:41;;;;;;;6.80;4.20;;;;;;;;;;43804;272;3030766;-31
2024/01/18 02:51:44;;;;;;;6.10;4.10;;;;;;;;;;44244;272;3031033;-31
2024/01/18 02:53:33;;;;;;;6.10;3.90;;;;;;;;;;43599;264;3031093;-31
2024/01/18 02:55:25;;;;;;;6.50;4.30;;;;;;;;;;44335;272;3030715;-31
2024/01/18 02:57:24;;;;;;;6.40;4.20;;;;;;;;;;43693;269;3030800;-32
2024/01/18 02:59:22;;;;;;;6.50;4.10;;;;;;;;;;44330;265;3030765;-32
2024/01/18 03:01:07;;;;;;;6.00;4.00;;;;;;;;;;44310;273;3030512;-32
2024/01/18 03:02:52;;;;;;;7.00;4.20;;;;;;;;;;43710;269;3030372;-32
2024/01/18 03:04:37;;;;;;;5.80;3.90;;;;;;;;;;43593;269;3030724;-32
2024/01/18 03:06:23;;;;;;;6.20;4.20;;;;;;;;;;43568;273;3030914;-32
2024/01/18 03:08:11;;;;;;;6.60;4.30;;;;;;;;;;43583;273;3030434;-32
2024/01/18 03:09:59;;;;;;;6.60;4.20;;;;;;;;;;43547;269;3030576;-32
2024/01/18 03:11:49;;;;;;;6.20;3.90;;;;;;;;;;43763;276;3030963;-32
2024/01/18 03:13:43;;;;;;;6.50;4.00;;;;;;;;;;44300;273;3031295;-32
2024/01/18 03:15:32;;;;;;;6.30;4.00;;;;;;;;;;43891;265;3031264;-32
2024/01/18 03:17:22;;;;;;;6.30;3.90;;;;;;;;;;43587;265;3030578;-32
2024/01/18 03:19:14;;;;;;;6.30;4.30;;;;;;;;;;43562;265;3031962;-32
2024/01/18 03:21:02;;;;;;;6.60;4.30;;;;;;;;;;43552;276;3037173;-32
2024/01/18 03:22:58;;;;;;;6.00;4.20;;;;;;;;;;44249;269;3031303;-32
2024/01/18 03:24:53;;;;;;;6.30;3.90;;;;;;;;;;43701;273;3030878;-32
2024/01/18 03:26:48;;;;;;;6.30;4.00;;;;;;;;;;43579;276;3031130;-32
2024/01/18 03:28:39;;;;;;;6.30;4.10;;;;;;;;;;43548;266;3030540;-32
2024/01/18 03:30:30;;;;;;;6.60;4.30;;;;;;;;;;43557;273;3030734;-32
2024/01/18 03:32:20;;;;;;;6.40;4.10;;;;;;;;;;43555;276;3030932;-32
2024/01/18 03:34:09;;;;;;;6.00;4.00;;;;;;;;;;43568;276;3030879;-33
2024/01/18 03:35:57;;;;;;;5.90;4.00;;;;;;;;;;43579;265;3031146;-32
2024/01/18 03:37:43;;;;;;;6.30;4.00;;;;;;;;;;43593;273;3031167;-32
2024/01/18 03:39:27;;;;;;;6.30;4.10;;;;;;;;;;43568;265;3030548;-32
2024/01/18 03:41:15;;;;;;;6.20;4.20;;;;;;;;;;43573;269;3031604;-32
2024/01/18 03:43:02;;;;;;;5.90;4.00;;;;;;;;;;43575;269;3030535;-32
2024/01/18 03:44:51;;;;;;;5.70;3.80;;;;;;;;;;43580;276;3030835;-32
2024/01/18 03:46:38;;;;;;;5.70;3.90;;;;;;;;;;43572;273;3030585;-32
2024/01/18 03:48:27;;;;;;;6.40;4.10;;;;;;;;;;43563;273;3030144;-32
2024/01/18 03:50:16;;;;;;;5.90;4.10;;;;;;;;;;44162;269;3030520;-32
2024/01/18 03:52:06;;;;;;;5.50;3.70;;;;;;;;;;43570;268;3030800;-32
2024/01/18 03:53:56;;;;;;;6.10;4.00;;;;;;;;;;44306;272;3030644;-32
2024/01/18 03:55:50;;;;;;;6.30;4.00;;;;;;;;;;44013;273;3031438;-32
2024/01/18 03:57:50;;;;;;;6.00;3.90;;;;;;;;;;43575;276;3031770;-32
2024/01/18 03:59:41;;;;;;;6.10;4.00;;;;;;;;;;43567;276;3031293;-32
2024/01/18 04:01:41;;;;;;;6.10;3.90;;;;;;;;;;43750;273;3030696;-32
2024/01/18 04:03:35;;;;;;;6.20;3.90;;;;;;;;;;43747;269;3031287;-32
2024/01/18 04:05:23;;;;;;;5.80;3.70;;;;;;;;;;43664;268;3030537;-32
2024/01/18 04:07:13;;;;;;;6.50;4.10;;;;;;;;;;43574;276;3031037;-32
2024/01/18 04:09:06;;;;;;;5.90;3.70;;;;;;;;;;43898;265;3030610;-32
2024/01/18 04:11:02;;;;;;;6.30;3.80;;;;;;;;;;43597;265;3030385;-32
2024/01/18 04:13:16;;;;;;;6.50;4.00;;;;;;;;;;43991;269;3031176;-32
2024/01/18 04:15:11;;;;;;;5.50;3.90;;;;;;;;;;43586;276;3030720;-32
2024/01/18 04:17:17;;;;;;;6.80;4.10;;;;;;;;;;44306;272;3030784;-32
2024/01/18 04:19:05;;;;;;;6.30;3.90;;;;;;;;;;44210;269;3030979;-32
2024/01/18 04:21:02;;;;;;;6.50;4.00;;;;;;;;;;44009;272;3030409;-32
2024/01/18 04:22:55;;;;;;;6.40;3.90;;;;;;;;;;44231;272;3031898;-32
2024/01/18 04:24:46;;;;;;;6.50;4.20;;;;;;;;;;43565;265;3031599;-32
2024/01/18 04:26:43;;;;;;;6.70;4.00;;;;;;;;;;44230;276;3030953;-32
2024/01/18 04:28:37;;;;;;;5.80;4.00;;;;;;;;;;43926;273;3031010;-32
2024/01/18 04:30:42;;;;;;;6.60;4.40;;;;;;;;;;43674;265;3030968;-32
2024/01/18 04:32:34;;;;;;;7.10;4.10;;;;;;;;;;43734;269;3036723;-33
2024/01/18 04:34:19;;;;;;;6.60;4.30;;;;;;;;;;43596;269;3031465;-33
2024/01/18 04:36:11;;;;;;;5.90;4.00;;;;;;;;;;43599;273;3030777;-32
2024/01/18 04:38:03;;;;;;;6.10;3.90;;;;;;;;;;44278;273;3030523;-32
2024/01/18 04:39:55;;;;;;;6.70;4.10;;;;;;;;;;43591;272;3030919;-32
2024/01/18 04:41:43;;;;;;;6.60;4.10;;;;;;;;;;43552;268;3030905;-32
2024/01/18 04:43:37;;;;;;;6.20;4.10;;;;;;;;;;43653;269;3030615;-32
2024/01/18 04:45:28;;;;;;;7.00;4.30;;;;;;;;;;43764;278;3030957;-32
2024/01/18 04:47:21;;;;;;;6.50;4.20;;;;;;;;;;43861;273;3028740;-32
2024/01/18 04:49:19;;;;;;;7.00;4.40;;;;;;;;;;43591;280;3030603;-32
2024/01/18 04:51:16;;;;;;;7.70;5.10;;;;;;;;;;43575;268;3032460;-32
2024/01/18 04:53:09;;;;;;;6.60;4.30;;;;;;;;;;43574;269;3037243;-32
2024/01/18 04:55:10;;;;;;;7.20;4.50;;;;;;;;;;44302;272;3031361;-32
2024/01/18 04:57:07;;;;;;;6.50;4.70;;;;;;;;;;43971;269;3030843;-32
2024/01/18 04:59:01;;;;;;;7.20;4.30;;;;;;;;;;43779;269;3030687;-32
2024/01/18 05:00:47;;;;;;;6.60;4.60;;;;;;;;;;43602;268;3030592;-32
2024/01/18 05:02:34;;;;;;;7.20;4.40;;;;;;;;;;43567;273;3030535;-32
2024/01/18 05:04:20;;;;;;;6.60;4.30;;;;;;;;;;43568;268;3030921;-32
2024/01/18 05:06:17;;;;;;;6.50;4.30;;;;;;;;;;43572;280;3031195;-32
2024/01/18 05:08:10;;;;;;;7.00;4.90;;;;;;;;;;44004;269;3030895;-32
2024/01/18 05:09:59;;;;;;;7.70;4.60;;;;;;;;;;43577;272;3030479;-32
2024/01/18 05:11:52;;;;;;;6.40;4.50;;;;;;;;;;43565;276;3030969;-32
2024/01/18 05:13:45;;;;;;;6.80;4.80;;;;;;;;;;43581;276;3036786;-32
2024/01/18 05:15:40;;;;;;;7.20;4.60;;;;;;;;;;43579;270;3030377;-32
2024/01/18 05:17:35;;;;;;;6.40;4.40;;;;;;;;;;43681;276;3030669;-32
2024/01/18 05:19:34;;;;;;;6.90;4.70;;;;;;;;;;44261;269;3031144;-32
2024/01/18 05:21:28;;;;;;;8.10;4.90;;;;;;;;;;44254;273;3031007;-32
2024/01/18 05:23:18;;;;;;;6.90;4.70;;;;;;;;;;43570;265;3031165;-32
2024/01/18 05:25:13;;;;;;;6.90;5.00;;;;;;;;;;43588;276;3032108;-32
2024/01/18 05:27:09;;;;;;;6.90;5.00;;;;;;;;;;44071;269;3030933;-32
2024/01/18 05:29:06;;;;;;;6.90;4.50;;;;;;;;;;43796;273;3030574;-32
2024/01/18 05:31:00;;;;;;;6.90;4.70;;;;;;;;;;43577;276;3031517;-32
2024/01/18 05:32:56;;;;;;;7.30;4.50;;;;;;;;;;44266;273;3030945;-32
2024/01/18 05:34:46;;;;;;;6.60;4.70;;;;;;;;;;43782;276;3037792;-31
2024/01/18 05:36:37;;;;;;;6.50;4.90;;;;;;;;;;43573;276;3030866;-31
2024/01/18 05:38:34;;;;;;;6.90;4.80;;;;;;;;;;43621;265;3031229;-31
2024/01/18 05:40:34;;;;;;;7.00;4.70;;;;;;;;;;43840;269;3030528;-31
2024/01/18 05:42:30;;;;;;;7.40;4.80;;;;;;;;;;43636;273;3030721;-31
2024/01/18 05:44:29;;;;;;;6.30;4.50;;;;;;;;;;43806;273;3030651;-31
2024/01/18 05:46:26;;;;;;;7.40;5.10;;;;;;;;;;43590;269;3031187;-31
2024/01/18 05:48:14;;;;;;;6.60;4.70;;;;;;;;;;43584;276;3031266;-31
2024/01/18 05:50:19;;;;;;;6.90;4.60;;;;;;;;;;43983;269;3030662;-31
2024/01/18 05:52:17;;;;;;;6.70;5.00;;;;;;;;;;43696;269;3031596;-31
2024/01/18 05:54:12;;;;;;;;;;;;;;;;;;43601;269;3031330;-31
2024/01/18 05:56:09;;;;;;;7.20;5.10;;;;;;;;;;43859;284;3030893;-31
2024/01/18 05:58:07;;;;;;;8.20;4.90;;;;;;;;;;43663;276;3030950;-31
2024/01/18 06:00:01;;;;;;;7.50;5.10;;;;;;;;;;43837;269;3030937;-31
2024/01/18 06:01:58;;;;;;;7.60;5.10;;;;;;;;;;43625;276;3030768;-31
2024/01/18 06:03:55;;;;;;;7.50;5.40;;;;;;;;;;43731;265;3030325;-31
2024/01/18 06:05:58;;;;;;;8.40;5.20;;;;;;;;;;43635;276;3031257;-31
2024/01/18 06:07:55;;;;;;;6.80;4.70;;;;;;;;;;43984;265;3037790;-31
2024/01/18 06:12:15;;;;;;;7.70;5.50;;;;;;;;;;43679;276;3030627;-31
2024/01/18 06:14:15;;;;;;;7.20;5.30;;;;;;;;;;43610;265;3030921;-31
2024/01/18 06:16:15;;;;;;;7.30;5.10;;;;;;;;;;43723;265;3031534;-31
2024/01/18 06:18:06;;;;;;;6.80;5.10;;;;;;;;;;43560;273;3037205;-31
2024/01/18 06:20:04;;;;;;;;;;;;;;;;;;43820;273;3030929;-31
2024/01/18 06:22:02;;;;;;;8.40;5.40;;;;;;;;;;43686;265;3030668;-31
2024/01/18 06:23:59;;;;;;;7.60;5.10;;;;;;;;;;43591;269;3029480;-31
2024/01/18 06:26:06;;;;;;;8.00;5.60;;;;;;;;;;44003;268;3031144;-31
2024/01/18 06:27:56;;;;;;;7.00;5.10;;;;;;;;;;44131;273;3030653;-33
2024/01/18 06:29:54;;;;;;;7.70;5.30;;;;;;;;;;44230;269;3030511;-33
2024/01/18 06:31:50;;;;;;;7.30;5.30;;;;;;;;;;43612;269;3030598;-33
2024/01/18 06:33:44;;;;;;;7.60;5.60;;;;;;;;;;43589;273;3030880;-33
2024/01/18 06:35:32;;;;;;;7.90;5.70;;;;;;;;;;43822;276;3030558;-33
2024/01/18 06:37:22;;;;;;;7.20;5.30;;;;;;;;;;43566;273;3031019;-33
2024/01/18 06:39:15;;;;;;;7.70;5.30;;;;;;;;;;43555;272;3031052;-33
2024/01/18 06:41:09;;;;;;;7.80;5.60;;;;;;;;;;43869;265;3031255;-33
2024/01/18 06:42:58;;;;;;;8.10;5.30;;;;;;;;;;43569;269;3030320;-33
2024/01/18 06:44:51;;;;;;;8.10;5.80;;;;;;;;;;44292;273;3030292;-33
2024/01/18 06:46:45;;;;;;;7.90;5.40;;;;;;;;;;43759;273;3030677;-33
2024/01/18 06:48:50;;;;;;;7.60;5.60;;;;;;;;;;44202;272;3031611;-33
2024/01/18 06:51:53;;;;;;;7.60;5.50;;;;;;;;;;44213;304;3012301;-30
2024/01/18 06:53:47;;;;;;;7.60;5.50;;;;;;;;;;43758;283;3031407;-31
2024/01/18 06:55:55;;;;;;;7.60;5.80;;;;;;;;;;43934;282;3031829;-30
2024/01/18 06:57:51;;;;;;;7.60;5.70;;;;;;;;;;43754;281;3032087;-30
2024/01/18 06:59:51;;;;;;;7.60;5.50;;;;;;;;;;43324;283;3031556;-30
2024/01/18 07:01:47;;;;;;;8.30;5.70;;;;;;;;;;44038;279;3031971;-30
2024/01/18 07:03:35;;;;;;;8.50;6.00;;;;;;;;;;43499;283;3031694;-30
2024/01/18 07:05:27;;;;;;;7.90;6.10;;;;;;;;;;43097;290;3031985;-30
2024/01/18 07:07:20;;;;;;;9.00;6.10;;;;;;;;;;43384;269;3033287;-30
2024/01/18 07:09:18;;;;;;;8.00;6.10;;;;;;;;;;43446;281;3032491;-30
2024/01/18 07:11:11;;;;;;;8.00;6.00;;;;;;;;;;43436;277;3030515;-31
2024/01/18 07:13:04;;;;;;;8.10;6.00;;;;;;;;;;43404;281;3030825;-30
2024/01/18 07:14:52;;;;;;;8.20;6.40;;;;;;;;;;43469;281;3031191;-30
2024/01/18 07:16:40;;;;;;;8.60;6.30;;;;;;;;;;43430;281;3031425;-32
2024/01/18 07:18:31;;;;;;;7.80;6.00;;;;;;;;;;43426;287;3031042;-33
2024/01/18 07:20:25;;;;;;;8.30;6.40;;;;;;;;;;43440;281;3031122;-33
2024/01/18 07:22:18;;;;;;;8.20;6.10;;;;;;;;;;43419;273;3030900;-33
2024/01/18 07:24:19;;;;;;;8.70;6.20;;;;;;;;;;43449;281;3030490;-33
2024/01/18 07:26:10;;;;;;;9.30;6.30;;;;;;;;;;44150;277;3030958;-33
2024/01/18 07:28:12;;;;;;;8.20;6.30;;;;;;;;;;43542;281;3031304;-33
2024/01/18 07:30:07;;;;;;;8.50;6.30;;;;;;;;;;43838;281;3032083;-33
2024/01/18 07:31:59;;;;;;;8.10;6.20;;;;;;;;;;43806;278;3030645;-33
2024/01/18 07:33:53;;;;;;;8.70;6.30;;;;;;;;;;43633;277;3037243;-33
2024/01/18 07:35:50;;;;;;;7.90;6.00;;;;;;;;;;43472;278;3031099;-33
2024/01/18 07:37:37;;;;;;;7.90;5.90;;;;;;;;;;43377;270;3030499;-33
2024/01/18 07:39:23;;;;;;;7.80;6.20;;;;;;;;;;43348;282;3030234;-33
2024/01/18 07:41:11;;;;;;;8.40;6.60;;;;;;;;;;43438;273;3031194;-33
2024/01/18 07:42:57;;;;;;;9.10;6.50;;;;;;;;;;43424;281;3030491;-33
2024/01/18 07:44:53;;;;;;;8.20;6.30;;;;;;;;;;43489;273;3031258;-33
2024/01/18 07:46:45;;;;;;;9.50;6.50;;;;;;;;;;43412;277;3031216;-33
2024/01/18 07:48:32;;;;;;;8.20;6.50;;;;;;;;;;43438;269;3031000;-33
2024/01/18 07:50:20;;;;;;;8.40;6.60;;;;;;;;;;43452;273;3030551;-33
2024/01/18 07:52:21;;;;;;;8.20;6.60;;;;;;;;;;43433;289;3031833;-33
2024/01/18 07:54:15;;;;;;;8.60;6.50;;;;;;;;;;43448;281;3031341;-33
2024/01/18 07:56:11;;;;;;;9.00;6.50;;;;;;;;;;43951;281;3031380;-33
2024/01/18 07:57:59;;;;;;;8.70;6.60;;;;;;;;;;43447;276;3031144;-33
2024/01/18 07:59:46;;;;;;;8.70;6.90;;;;;;;;;;43540;280;3031898;-33
2024/01/18 08:01:40;;;;;;;8.80;7.00;;;;;;;;;;43449;280;3031343;-33
2024/01/18 08:03:30;;;;;;;8.40;6.50;;;;;;;;;;43451;281;3031379;-33
2024/01/18 08:05:27;;;;;;;9.00;7.00;;;;;;;;;;43446;281;3031024;-33
2024/01/18 08:07:18;;;;;;;9.20;6.90;;;;;;;;;;43456;281;3030842;-33
2024/01/18 08:09:27;;;;;;;9.10;7.20;;;;;;;;;;44129;280;3031195;-33
2024/01/18 08:11:25;;;;;;;9.60;7.20;;;;;;;;;;43810;277;3030643;-33
2024/01/18 08:13:15;;;;;;;9.70;7.40;;;;;;;;;;43447;281;3032056;-33
2024/01/18 08:15:06;;;;;;;8.70;6.90;;;;;;;;;;43474;269;3038301;-33
2024/01/18 08:16:54;;;;;;;8.90;6.90;;;;;;;;;;43511;266;3031163;-33
2024/01/18 08:18:42;;;;;;;9.80;7.10;;;;;;;;;;43438;281;3030799;-33
2024/01/18 08:20:41;;;;;;;9.20;6.90;;;;;;;;;;43633;273;3030870;-33
2024/01/18 08:22:29;;;;;;;9.50;7.40;;;;;;;;;;43970;281;3030995;-33
2024/01/18 08:24:24;;;;;;;9.50;7.30;;;;;;;;;;43414;281;3031693;-33
2024/01/18 08:26:16;;;;;;;9.70;7.20;;;;;;;;;;43949;285;3030882;-33
2024/01/18 08:28:05;;;;;;;9.30;7.10;;;;;;;;;;43465;269;3031030;-33
2024/01/18 08:29:50;;;;;;;9.40;7.10;;;;;;;;;;43616;277;3030415;-33
2024/01/18 08:31:39;;;;;;;10.00;7.50;;;;;;;;;;43440;273;3031137;-33
2024/01/18 08:33:33;;;;;;;9.50;7.50;;;;;;;;;;43440;277;3032959;-33
2024/01/18 08:35:21;;;;;;;9.90;7.60;;;;;;;;;;43436;281;3036948;-33
2024/01/18 08:37:12;;;;;;;9.50;7.90;;;;;;;;;;43426;273;3031478;-33
2024/01/18 08:39:07;;;;;;;9.40;7.60;;;;;;;;;;43434;273;3030446;-33
2024/01/18 08:40:55;;;;;;;9.90;7.70;;;;;;;;;;43450;273;3030965;-33
2024/01/18 08:42:49;;;;;;;9.50;7.40;;;;;;;;;;44000;269;3030986;-33
2024/01/18 08:44:36;;;;;;;10.00;7.60;;;;;;;;;;43537;281;3030586;-33
2024/01/18 08:46:23;;;;;;;10.20;7.70;;;;;;;;;;43451;273;3031053;-33
2024/01/18 08:48:20;;;;;;;8.90;7.30;;;;;;;;;;43477;277;3031428;-33
2024/01/18 08:50:16;;;;;;;10.40;7.80;;;;;;;;;;43423;281;3031941;-33
2024/01/18 08:52:11;;;;;;;9.60;7.60;;;;;;;;;;44156;277;3031194;-33
2024/01/18 08:54:07;;;;;;;9.20;7.50;;;;;;;;;;43578;281;3031180;-33
2024/01/18 08:56:08;;;;;;;9.80;8.30;;;;;;;;;;43526;281;3036351;-33
2024/01/18 08:57:56;;;;;;;9.90;7.90;;;;;;;;;;44164;277;3030666;-33
2024/01/18 08:59:43;;;;;;;9.60;7.80;;;;;;;;;;43749;281;3030513;-33
2024/01/18 09:01:29;;;;;;;10.10;7.70;;;;;;;;;;43444;281;3031662;-33
2024/01/18 09:03:20;;;;;;;9.40;7.80;;;;;;;;;;43440;281;3031008;-33
2024/01/18 09:05:24;;;;;;;10.10;8.10;;;;;;;;;;44114;281;3031217;-33
2024/01/18 09:07:20;;;;;;;9.60;8.00;;;;;;;;;;43746;269;3031050;-33
2024/01/18 09:10:33;;;;;;;9.30;7.40;;;;;;;;;;44263;311;3014806;-33
2024/01/18 09:12:25;;;;;;;10.10;8.20;;;;;;;;;;43042;289;3030894;-33
2024/01/18 09:14:15;;;;;;;9.80;8.20;;;;;;;;;;43347;289;3031393;-33
2024/01/18 09:16:02;;;;;;;10.90;8.50;;;;;;;;;;43052;289;3032085;-33
2024/01/18 09:17:51;;;;;;;10.00;7.90;;;;;;;;;;43034;285;3031073;-34
2024/01/18 09:19:44;;;;;;;10.30;8.20;;;;;;;;;;43221;289;3031378;-33
2024/01/18 09:21:30;;;;;;;10.00;8.30;;;;;;;;;;43011;289;3031460;-33
2024/01/18 09:23:14;;;;;;;11.70;8.40;;;;;;;;;;43050;289;3031488;-33
2024/01/18 09:25:00;;;;;;;10.20;8.30;;;;;;;;;;42744;284;3031974;-32
2024/01/18 09:26:50;;;;;;;9.90;8.10;;;;;;;;;;43156;280;3031195;-32
2024/01/18 09:28:35;;;;;;;10.00;8.00;;;;;;;;;;43335;288;3030853;-32
2024/01/18 09:30:23;;;;;;;10.60;8.00;;;;;;;;;;43272;271;3031419;-33
2024/01/18 09:32:10;;;;;;;10.40;8.10;;;;;;;;;;43468;280;3037560;-33
2024/01/18 09:33:55;;;;;;;9.90;8.10;;;;;;;;;;43452;281;3031633;-33
2024/01/18 09:35:41;;;;;;;10.50;8.70;;;;;;;;;;43465;285;3031942;-33
2024/01/18 09:37:27;;;;;;;10.70;8.90;;;;;;;;;;43435;281;3031090;-33
2024/01/18 09:39:16;;;;;;;10.00;8.10;;;;;;;;;;43447;272;3031776;-33
2024/01/18 09:41:09;;;;;;;10.40;8.40;;;;;;;;;;43423;280;3031864;-32
2024/01/18 09:42:56;;;;;;;11.00;8.50;;;;;;;;;;44157;269;3032691;-32
2024/01/18 09:44:43;;;;;;;10.50;8.50;;;;;;;;;;43824;272;3030978;-33
2024/01/18 09:46:29;;;;;;;11.70;8.60;;;;;;;;;;43456;276;3031809;-33
2024/01/18 09:48:22;;;;;;;10.60;8.00;;;;;;;;;;43618;280;3031561;-33
2024/01/18 09:50:14;;;;;;;9.90;8.20;;;;;;;;;;44062;280;3032036;-33
2024/01/18 09:51:59;;;;;;;11.00;8.60;;;;;;;;;;43426;281;3030786;-33
2024/01/18 09:53:54;;;;;;;10.80;8.70;;;;;;;;;;43472;280;3031174;-33
2024/01/18 09:55:46;;;;;;;11.50;8.90;;;;;;;;;;43542;269;3031195;-33
2024/01/18 09:57:44;;;;;;;10.80;8.50;;;;;;;;;;43463;281;3031387;-33
2024/01/18 09:59:40;;;;;;;10.30;8.40;;;;;;;;;;43527;268;3031899;-33
2024/01/18 10:01:28;;;;;;;12.10;8.80;;;;;;;;;;43428;280;3031777;-33
2024/01/18 10:03:13;;;;;;;11.70;8.90;;;;;;;;;;43463;273;3031601;-33
2024/01/18 10:05:07;;;;;;;11.70;9.50;;;;;;;;;;43470;280;3031619;-33
2024/01/18 10:06:57;;;;;;;11.00;9.10;;;;;;;;;;43670;276;3031634;-33
2024/01/18 10:08:53;;;;;;;11.60;9.60;;;;;;;;;;43593;279;3031519;-33
2024/01/18 10:10:37;;;;;;;11.40;9.30;;;;;;;;;;43875;277;3031952;-34
2024/01/18 10:12:22;;;;;;;11.50;9.50;;;;;;;;;;43906;279;3032307;-33
2024/01/18 10:14:07;;;;;;;11.50;9.50;;;;;;;;;;44233;275;3032442;-33
2024/01/18 10:15:58;;;;;;;11.60;9.20;;;;;;;;;;44021;271;3031944;-33
2024/01/18 10:17:54;;;;;;;12.00;10.10;;;;;;;;;;43519;271;3031663;-33
2024/01/18 10:19:42;;;;;;;12.40;10.00;;;;;;;;;;43446;284;3031209;-33
2024/01/18 10:21:36;;;;;;;11.30;10.10;;;;;;;;;;43578;288;3031406;-33
2024/01/18 10:23:33;;;;;;;11.80;9.70;;;;;;;;;;43519;288;3037733;-33
2024/01/18 10:25:25;;;;;;;14.80;9.90;;;;;;;;;;43653;288;3031166;-33
2024/01/18 10:27:17;;;;;;;13.00;9.40;;;;;;;;;;43460;268;3031392;-33
2024/01/18 10:29:04;;;;;;;13.50;10.20;;;;;;;;;;43451;273;3031699;-33
2024/01/18 10:30:54;;;;;;;12.50;9.40;;;;;;;;;;43504;268;3030710;-33
2024/01/18 10:32:45;;;;;;;13.10;10.00;;;;;;;;;;43472;268;3031727;-33
2024/01/18 10:34:33;;;;;;;13.90;10.40;;;;;;;;;;43470;280;3032454;-32
2024/01/18 10:36:22;;;;;;;13.60;9.60;;;;;;;;;;43594;268;3031549;-32
2024/01/18 10:38:14;;;;;;;12.90;9.30;;;;;;;;;;43479;272;3031295;-31
2024/01/18 10:40:21;;;;;;;12.40;9.80;;;;;;;;;;44138;280;3031863;-32
2024/01/18 10:42:19;;;;;;;12.50;9.90;;;;;;;;;;43654;272;3031831;-32
2024/01/18 10:44:10;;;;;;;13.20;9.80;;;;;;;;;;44127;279;3031142;-32
2024/01/18 10:45:58;;;;;;;12.80;10.40;;;;;;;;;;43527;287;3031236;-32
2024/01/18 10:47:49;;;;;;;12.40;10.10;;;;;;;;;;43475;272;3031893;-32
2024/01/18 10:49:42;;;;;;;13.90;10.50;;;;;;;;;;43691;276;3031229;-32
2024/01/18 10:51:32;;;;;;;12.50;9.80;;;;;;;;;;43834;268;3031957;-32
2024/01/18 10:53:31;;;;;;;11.40;9.50;;;;;;;;;;43504;272;3031597;-32
2024/01/18 10:55:19;;;;;;;12.30;9.80;;;;;;;;;;43795;279;3037543;-32
2024/01/18 10:57:12;;;;;;;12.00;9.90;;;;;;;;;;43500;276;3031184;-32
2024/01/18 10:59:04;;;;;;;12.30;9.60;;;;;;;;;;43716;272;3031489;-32
2024/01/18 11:01:05;;;;;;;13.40;9.60;;;;;;;;;;43454;279;3032188;-32
2024/01/18 11:02:51;;;;;;;12.20;9.80;;;;;;;;;;44032;268;3031051;-32
2024/01/18 11:04:58;;;;;;;12.20;10.10;;;;;;;;;;43499;288;3031128;-32
2024/01/18 11:06:48;;;;;;;12.60;9.80;;;;;;;;;;43475;279;3032710;-32
2024/01/18 11:08:36;;;;;;;13.60;10.40;;;;;;;;;;43458;279;3031454;-32
2024/01/18 11:10:30;;;;;;;13.80;10.90;;;;;;;;;;43595;276;3031711;-32
2024/01/18 11:12:34;;;;;;;18.90;16.10;;;;;;;;;;43593;279;3031959;-31
2024/01/18 11:14:24;;;;;;;18.00;15.10;;;;;;;;;;44170;268;3032996;-31